Time;durP1;ratioP1;P1;durP2;ratioP2;P2;SDS_P1;SDS_P2;PMS_P1;PMS_P2;Temp;Humidity;BMP_temperature;BMP_pressure;BME280_temperature;BME280_humidity;BME280_pressure;Samples;Min_cycle;Max_cycle;Signal;HPM_P1;HPM_P2
2021/12/10 00:01:23;;;;;;;5.75;2.25;;;1.20;74.30;;;;;;5058035;28;46400;-80
2021/12/10 00:03:53;;;;;;;4.70;2.40;;;1.40;74.40;;;;;;5053273;28;46377;-80
2021/12/10 00:06:30;;;;;;;4.35;1.75;;;1.30;74.30;;;;;;5034138;28;46437;-80
2021/12/10 00:09:00;;;;;;;4.65;2.00;;;1.20;74.20;;;;;;5057009;28;46381;-80
2021/12/10 00:11:40;;;;;;;5.88;3.17;;;1.20;74.00;;;;;;5054592;28;46512;-82
2021/12/10 00:14:07;;;;;;;10.02;1.98;;;1.10;74.10;;;;;;5047710;28;46322;-81
2021/12/10 00:16:33;;;;;;;6.75;2.28;;;1.10;74.10;;;;;;5042718;28;46376;-80
2021/12/10 00:19:13;;;;;;;5.40;1.85;;;1.00;73.90;;;;;;5057461;28;46564;-79
2021/12/10 00:21:40;;;;;;;1.52;1.42;;;1.20;74.00;;;;;;5058900;28;46575;-79
2021/12/10 00:24:06;;;;;;;5.70;1.90;;;1.00;73.70;;;;;;5050421;28;46450;-80
2021/12/10 00:26:32;;;;;;;5.97;1.90;;;0.90;73.60;;;;;;5060852;28;46494;-81
2021/12/10 00:29:02;;;;;;;5.40;1.70;;;0.90;73.70;;;;;;5060294;28;46553;-80
2021/12/10 00:34:07;;;;;;;7.88;1.85;;;0.70;73.80;;;;;;5064234;28;46323;-81
2021/12/10 00:36:36;;;;;;;5.45;1.92;;;0.60;74.00;;;;;;5049032;28;46575;-80
2021/12/10 00:39:05;;;;;;;4.28;1.83;;;0.50;74.10;;;;;;5040818;28;47984;-80
2021/12/10 00:41:31;;;;;;;7.47;1.85;;;0.40;74.20;;;;;;5058178;28;46474;-81
2021/12/10 00:43:57;;;;;;;7.38;1.88;;;0.30;74.30;;;;;;5063901;28;45811;-81
2021/12/10 00:46:22;;;;;;;4.80;1.80;;;0.30;74.30;;;;;;5054629;28;46182;-82
2021/12/10 00:48:48;;;;;;;4.30;1.77;;;0.20;74.30;;;;;;5071685;28;46416;-81
2021/12/10 00:51:14;;;;;;;4.47;2.30;;;0.20;74.30;;;;;;5074287;28;46400;-80
2021/12/10 00:53:41;;;;;;;5.38;2.08;;;0.10;74.20;;;;;;5074561;28;46412;-82
2021/12/10 00:56:09;;;;;;;5.25;2.20;;;0.10;74.10;;;;;;5075364;28;45863;-81
2021/12/10 00:58:37;;;;;;;4.20;2.08;;;0.00;74.10;;;;;;5068325;28;46170;-81
2021/12/10 01:01:06;;;;;;;2.22;1.40;;;-0.10;74.10;;;;;;5065257;28;46383;-79
2021/12/10 01:03:41;;;;;;;5.43;2.20;;;-0.10;74.30;;;;;;5058859;28;46294;-80
2021/12/10 01:06:10;;;;;;;6.43;2.17;;;-0.20;74.30;;;;;;5049537;28;46857;-80
2021/12/10 01:08:39;;;;;;;2.90;1.67;;;-0.20;74.30;;;;;;5064565;28;46240;-82
2021/12/10 01:11:09;;;;;;;5.53;1.95;;;-0.30;74.10;;;;;;5062721;28;47144;-82
2021/12/10 01:13:38;;;;;;;6.30;2.17;;;-0.30;74.00;;;;;;5061562;28;46488;-80
2021/12/10 01:24:48;;;;;;;5.80;2.20;;;-0.60;73.90;;;;;;5062858;28;47797;-80
2021/12/10 01:27:26;;;;;;;11.93;3.05;;;-0.80;74.00;;;;;;5060660;28;46285;-83
2021/12/10 01:29:56;;;;;;;10.35;2.50;;;-0.90;74.40;;;;;;5051752;28;46858;-80
2021/12/10 01:32:24;;;;;;;11.27;3.10;;;-1.00;74.70;;;;;;5060146;28;46418;-79
2021/12/10 01:34:50;;;;;;;4.00;1.90;;;-1.10;74.80;;;;;;5060466;28;46385;-81
2021/12/10 01:37:16;;;;;;;8.98;2.30;;;-1.10;75.00;;;;;;5044456;28;46353;-79
2021/12/10 01:39:43;;;;;;;7.17;1.83;;;-1.10;75.00;;;;;;5062707;28;46425;-81
2021/12/10 01:42:48;;;;;;;8.15;2.35;;;-1.10;74.80;;;;;;5062992;28;46298;-80
2021/12/10 01:45:17;;;;;;;6.65;1.80;;;-1.20;74.60;;;;;;5056606;28;45867;-82
2021/12/10 01:47:44;;;;;;;4.80;1.70;;;-1.20;74.50;;;;;;5060357;28;46364;-81
2021/12/10 01:50:12;;;;;;;7.32;3.55;;;-1.20;74.40;;;;;;5059606;28;46403;-79
2021/12/10 01:52:38;;;;;;;2.78;1.92;;;-1.30;74.30;;;;;;5057095;28;46415;-80
2021/12/10 01:55:05;;;;;;;3.27;1.33;;;-1.30;74.30;;;;;;5063600;28;46442;-80
2021/12/10 01:57:33;;;;;;;6.95;2.30;;;-1.40;74.20;;;;;;5062230;28;46395;-80
2021/12/10 02:00:00;;;;;;;2.10;1.55;;;-1.50;74.20;;;;;;5059521;28;46881;-81
2021/12/10 02:02:32;;;;;;;3.47;1.40;;;-1.50;74.40;;;;;;5060226;28;46554;-81
2021/12/10 02:04:58;;;;;;;3.75;1.50;;;-1.60;74.30;;;;;;5049554;28;46437;-80
2021/12/10 02:07:26;;;;;;;9.65;1.88;;;-1.70;74.30;;;;;;5057578;28;46380;-81
2021/12/10 02:09:53;;;;;;;3.13;1.25;;;-1.70;74.30;;;;;;5055787;28;46424;-79
2021/12/10 02:12:19;;;;;;;2.80;1.58;;;-1.80;74.20;;;;;;5057958;28;46429;-81
2021/12/10 02:14:50;;;;;;;5.50;2.40;;;-1.80;74.10;;;;;;5059616;28;46464;-80
2021/12/10 02:17:16;;;;;;;2.58;1.77;;;-1.80;74.10;;;;;;5038042;28;46308;-79
2021/12/10 02:19:42;;;;;;;3.33;1.20;;;-1.90;74.00;;;;;;5061471;28;46349;-80
2021/12/10 02:22:08;;;;;;;4.00;1.60;;;-1.90;74.10;;;;;;5058654;28;46507;-80
2021/12/10 02:24:33;;;;;;;2.08;1.33;;;-1.90;74.00;;;;;;5056742;28;46460;-80
2021/12/10 02:27:04;;;;;;;5.90;2.03;;;-2.00;73.90;;;;;;5057466;28;46499;-80
2021/12/10 02:29:32;;;;;;;8.40;2.58;;;-2.00;73.90;;;;;;5060255;28;46380;-81
2021/12/10 02:31:57;;;;;;;5.43;2.70;;;-2.10;73.80;;;;;;5056037;28;48561;-79
2021/12/10 02:34:24;;;;;;;5.43;1.57;;;-2.10;73.80;;;;;;5061166;28;46495;-79
2021/12/10 02:36:50;;;;;;;4.28;1.50;;;-2.20;73.90;;;;;;5064591;28;46245;-79
2021/12/10 02:39:19;;;;;;;4.20;1.70;;;-2.20;74.10;;;;;;5066938;28;45937;-81
2021/12/10 02:41:45;;;;;;;3.83;1.60;;;-2.30;74.00;;;;;;5046275;28;48247;-82
2021/12/10 02:44:15;;;;;;;5.25;2.03;;;-2.30;74.00;;;;;;5044510;28;46624;-79
2021/12/10 02:46:41;;;;;;;7.95;2.00;;;-2.40;73.90;;;;;;5056314;28;46502;-80
2021/12/10 02:49:09;;;;;;;4.72;1.92;;;-2.40;73.90;;;;;;5051513;28;46393;-79
2021/12/10 02:51:35;;;;;;;1.70;1.20;;;-2.50;73.90;;;;;;5049564;28;46507;-80
2021/12/10 02:54:03;;;;;;;12.60;1.60;;;-2.50;74.00;;;;;;5034543;28;46845;-78
2021/12/10 02:56:29;;;;;;;4.22;1.35;;;-2.50;74.10;;;;;;5039797;28;46437;-78
2021/12/10 02:58:59;;;;;;;2.67;1.40;;;-2.50;73.90;;;;;;5051957;28;46539;-81
2021/12/10 03:01:34;;;;;;;4.45;1.25;;;-2.50;73.90;;;;;;5040357;28;48787;-81
2021/12/10 03:04:00;;;;;;;1.75;1.30;;;-2.50;75.00;;;;;;5055273;28;46721;-80
2021/12/10 03:06:28;;;;;;;6.10;1.10;;;-2.60;73.70;;;;;;5050510;28;46451;-79
2021/12/10 03:08:55;;;;;;;3.90;1.30;;;-2.50;73.70;;;;;;5032855;28;46512;-79
2021/12/10 03:11:29;;;;;;;4.43;1.50;;;-2.60;73.60;;;;;;5046042;28;46318;-79
2021/12/10 03:13:56;;;;;;;6.45;1.45;;;-2.60;73.60;;;;;;5047716;28;46438;-79
2021/12/10 03:16:22;;;;;;;4.60;1.38;;;-2.60;73.70;;;;;;5041575;28;46513;-80
2021/12/10 03:18:48;;;;;;;3.65;1.50;;;-2.70;73.80;;;;;;5033873;28;46397;-79
2021/12/10 03:21:14;;;;;;;7.43;2.35;;;-2.70;73.90;;;;;;5031915;28;46444;-79
2021/12/10 03:23:43;;;;;;;3.67;1.33;;;-2.80;73.90;;;;;;5036797;28;46345;-78
2021/12/10 03:26:12;;;;;;;1.45;1.13;;;-2.80;73.90;;;;;;5031146;28;46476;-79
2021/12/10 03:28:42;;;;;;;2.95;1.10;;;-2.90;73.70;;;;;;5038365;28;45906;-78
2021/12/10 03:31:09;;;;;;;4.45;1.15;;;-3.00;73.80;;;;;;5035377;28;49489;-78
2021/12/10 03:33:36;;;;;;;2.45;1.08;;;-3.10;73.80;;;;;;5042127;28;46324;-79
2021/12/10 03:36:03;;;;;;;4.78;1.60;;;-3.10;73.90;;;;;;5053892;28;46292;-79
2021/12/10 03:38:29;;;;;;;6.28;1.73;;;-3.10;74.10;;;;;;5051723;28;46724;-79
2021/12/10 03:40:55;;;;;;;4.85;1.30;;;-3.10;73.80;;;;;;5050632;28;46432;-79
2021/12/10 03:43:22;;;;;;;10.40;1.40;;;-3.10;73.70;;;;;;5052927;28;46401;-80
2021/12/10 03:45:52;;;;;;;6.53;1.10;;;-3.10;73.60;;;;;;5053971;28;46527;-80
2021/12/10 03:48:23;;;;;;;3.03;0.82;;;-3.10;74.70;;;;;;5055172;28;46642;-80
2021/12/10 03:50:49;;;;;;;10.52;3.40;;;-3.10;73.50;;;;;;5054765;28;46389;-79
2021/12/10 03:53:16;;;;;;;8.18;2.67;;;-3.10;73.50;;;;;;5052976;28;46481;-80
2021/12/10 03:55:42;;;;;;;9.80;2.50;;;-3.10;74.60;;;;;;5049660;28;46307;-77
2021/12/10 03:58:08;;;;;;;2.88;1.75;;;-3.10;73.30;;;;;;5036817;28;46366;-79
2021/12/10 04:00:38;;;;;;;4.55;2.20;;;-3.10;73.50;;;;;;5054821;28;46194;-80
2021/12/10 04:03:04;;;;;;;17.77;1.80;;;-3.10;73.50;;;;;;5034242;28;46108;-81
2021/12/10 04:05:30;;;;;;;2.88;1.50;;;-3.20;73.50;;;;;;5058147;28;45896;-79
2021/12/10 04:07:56;;;;;;;3.80;0.90;;;-3.20;73.50;;;;;;5060424;28;45952;-81
2021/12/10 04:10:23;;;;;;;1.80;1.00;;;-3.30;73.70;;;;;;5040103;28;48841;-81
2021/12/10 04:12:49;;;;;;;4.50;0.90;;;-3.60;73.70;;;;;;5035836;28;46473;-79
2021/12/10 04:15:18;;;;;;;6.37;1.60;;;-3.60;74.00;;;;;;5062046;28;46355;-82
2021/12/10 04:17:45;;;;;;;4.10;1.60;;;-3.70;73.90;;;;;;5041406;28;46385;-81
2021/12/10 04:20:11;;;;;;;4.93;1.45;;;-3.70;73.80;;;;;;5056638;28;46451;-80
2021/12/10 04:22:36;;;;;;;5.75;1.80;;;-3.80;73.60;;;;;;5061225;28;45813;-81
2021/12/10 04:25:07;;;;;;;2.10;1.47;;;-3.80;73.50;;;;;;5058797;28;46368;-82
2021/12/10 04:27:33;;;;;;;10.40;4.40;;;-3.80;73.40;;;;;;5059918;28;45812;-82
2021/12/10 04:30:00;;;;;;;12.35;4.53;;;-3.80;73.30;;;;;;5042231;28;47963;-80
2021/12/10 04:32:27;;;;;;;8.48;3.05;;;-3.80;73.20;;;;;;5060145;28;46531;-80
2021/12/10 04:34:53;;;;;;;18.85;3.00;;;-3.60;73.40;;;;;;5059023;28;46373;-82
2021/12/10 04:37:19;;;;;;;4.13;1.65;;;-3.80;73.20;;;;;;5061894;28;46659;-81
2021/12/10 04:39:47;;;;;;;1.75;1.17;;;-3.90;73.20;;;;;;5061501;28;46501;-80
2021/12/10 04:42:15;;;;;;;2.58;1.15;;;-4.10;73.60;;;;;;5041922;28;46346;-80
2021/12/10 04:44:41;;;;;;;2.38;1.05;;;-4.30;73.60;;;;;;5054147;28;46306;-80
2021/12/10 04:47:07;;;;;;;3.23;0.90;;;-4.50;73.80;;;;;;5058050;28;46247;-79
2021/12/10 04:49:33;;;;;;;2.85;1.25;;;-4.60;73.70;;;;;;5054855;28;46389;-80
2021/12/10 04:51:59;;;;;;;1.83;0.85;;;-4.70;73.70;;;;;;5054671;28;46305;-81
2021/12/10 04:54:26;;;;;;;2.23;1.00;;;-4.80;73.80;;;;;;5045967;28;46325;-79
2021/12/10 04:56:55;;;;;;;4.55;1.30;;;-4.90;73.80;;;;;;5041306;28;46598;-80
2021/12/10 04:59:21;;;;;;;7.60;0.98;;;-5.00;73.70;;;;;;5054332;28;46341;-80
2021/12/10 05:01:48;;;;;;;3.03;1.00;;;-4.90;73.70;;;;;;5051849;28;46700;-79
2021/12/10 05:04:15;;;;;;;3.08;1.10;;;-4.90;73.30;;;;;;5037314;28;46635;-79
2021/12/10 05:06:42;;;;;;;1.95;1.10;;;-4.80;73.30;;;;;;5037106;28;46393;-79
2021/12/10 05:09:11;;;;;;;1.65;1.27;;;-4.90;73.10;;;;;;5048229;28;46376;-78
2021/12/10 05:11:37;;;;;;;2.88;1.20;;;-4.90;73.00;;;;;;5032217;28;46489;-80
2021/12/10 05:14:03;;;;;;;8.23;1.40;;;-4.80;72.70;;;;;;5042459;28;46458;-80
2021/12/10 05:16:29;;;;;;;1.25;1.00;;;-4.80;72.90;;;;;;5054519;28;46216;-78
2021/12/10 05:18:59;;;;;;;3.43;1.50;;;-4.90;72.80;;;;;;5056146;28;46413;-77
2021/12/10 05:21:30;;;;;;;3.20;1.40;;;-5.10;72.60;;;;;;5055600;28;46435;-80
2021/12/10 05:23:57;;;;;;;3.38;1.30;;;-5.30;72.60;;;;;;5055462;28;46489;-80
2021/12/10 05:26:23;;;;;;;2.10;1.40;;;-5.30;72.90;;;;;;5057176;28;46420;-80
2021/12/10 05:28:48;;;;;;;2.70;1.33;;;-5.30;72.90;;;;;;5053486;28;46473;-78
2021/12/10 05:31:14;;;;;;;3.83;1.33;;;-5.30;72.80;;;;;;5052127;28;47022;-78
2021/12/10 05:33:40;;;;;;;1.80;1.40;;;-5.40;72.70;;;;;;5056190;28;45841;-80
2021/12/10 05:36:07;;;;;;;2.87;1.37;;;-5.30;72.50;;;;;;5060108;28;46948;-80
2021/12/10 05:38:33;;;;;;;4.22;2.38;;;-5.30;72.40;;;;;;5044105;28;49168;-80
2021/12/10 05:41:01;;;;;;;9.77;3.40;;;-5.30;72.30;;;;;;5049907;28;46579;-80
2021/12/10 05:43:26;;;;;;;3.63;2.10;;;-5.20;72.30;;;;;;5051750;28;46544;-80
2021/12/10 05:45:53;;;;;;;4.20;2.20;;;-5.20;72.00;;;;;;5059969;28;46267;-80
2021/12/10 05:48:19;;;;;;;4.25;2.85;;;-5.10;71.90;;;;;;5058191;28;46418;-80
2021/12/10 05:50:46;;;;;;;3.80;2.60;;;-5.00;71.70;;;;;;5057643;28;46330;-81
2021/12/10 05:53:12;;;;;;;5.22;2.78;;;-4.90;71.70;;;;;;5056922;28;46325;-80
2021/12/10 05:55:39;;;;;;;5.18;2.88;;;-4.90;71.40;;;;;;5039467;28;46448;-79
2021/12/10 05:58:05;;;;;;;2.58;2.25;;;-4.90;71.40;;;;;;5052188;28;47113;-79
2021/12/10 06:00:36;;;;;;;9.00;2.70;;;-4.90;72.70;;;;;;5057155;28;46868;-81
2021/12/10 06:03:01;;;;;;;2.17;1.65;;;-4.90;71.30;;;;;;5045044;28;46290;-81
2021/12/10 06:05:27;;;;;;;6.33;1.57;;;-5.00;71.40;;;;;;5054260;28;45795;-82
2021/12/10 06:07:53;;;;;;;1.75;1.20;;;-5.30;71.50;;;;;;5060023;28;46253;-80
2021/12/10 06:10:21;;;;;;;1.80;1.33;;;-5.50;71.90;;;;;;5058898;28;46363;-80
2021/12/10 06:12:49;;;;;;;4.05;1.60;;;-5.60;72.10;;;;;;5053981;28;46463;-82
2021/12/10 06:15:17;;;;;;;7.95;2.33;;;-5.70;72.30;;;;;;5060578;28;46350;-79
2021/12/10 06:17:43;;;;;;;13.85;3.75;;;-5.80;72.30;;;;;;5054912;28;46697;-79
2021/12/10 06:20:11;;;;;;;5.10;2.65;;;-5.70;72.40;;;;;;5052454;28;46818;-80
2021/12/10 06:22:37;;;;;;;6.50;2.58;;;-5.60;72.30;;;;;;5048028;28;45844;-78
2021/12/10 06:25:04;;;;;;;4.63;2.47;;;-5.60;71.90;;;;;;5050440;28;45883;-78
2021/12/10 06:27:30;;;;;;;4.18;2.47;;;-5.50;71.70;;;;;;5056631;28;46475;-78
2021/12/10 06:29:57;;;;;;;5.97;2.83;;;-5.40;71.60;;;;;;5051242;28;46772;-78
2021/12/10 06:32:23;;;;;;;2.85;1.75;;;-5.50;71.30;;;;;;5050631;28;46801;-78
2021/12/10 06:34:48;;;;;;;3.60;2.15;;;-5.50;71.40;;;;;;5052400;28;46170;-77
2021/12/10 06:37:14;;;;;;;4.90;2.60;;;-5.50;71.50;;;;;;5054010;28;46388;-80
2021/12/10 06:39:40;;;;;;;4.60;2.20;;;-5.50;71.30;;;;;;5050142;28;46366;-79
2021/12/10 06:42:05;;;;;;;3.50;2.00;;;-5.50;71.30;;;;;;5051421;28;46369;-79
2021/12/10 06:44:31;;;;;;;2.80;1.70;;;-5.50;71.30;;;;;;5035338;28;47119;-79
2021/12/10 06:46:57;;;;;;;9.70;3.30;;;-5.60;71.20;;;;;;5040701;28;48478;-79
2021/12/10 06:49:22;;;;;;;6.93;3.13;;;-5.70;71.20;;;;;;5048444;28;46338;-79
2021/12/10 06:51:48;;;;;;;10.90;2.50;;;-5.40;71.40;;;;;;5047268;28;45796;-79
2021/12/10 06:54:14;;;;;;;5.47;2.43;;;-5.50;71.20;;;;;;5049871;28;46552;-78
2021/12/10 06:56:40;;;;;;;8.32;3.88;;;-5.50;71.00;;;;;;5051730;28;47371;-78
2021/12/10 06:59:07;;;;;;;3.93;2.67;;;-5.50;71.00;;;;;;5045258;28;46350;-83
2021/12/10 07:01:38;;;;;;;5.00;3.20;;;-5.70;71.10;;;;;;5053346;28;46307;-80
2021/12/10 07:04:09;;;;;;;8.75;3.10;;;-5.90;71.20;;;;;;5054847;28;46368;-81
2021/12/10 07:06:35;;;;;;;7.82;4.53;;;-6.10;71.60;;;;;;5043016;28;48447;-81
2021/12/10 07:09:04;;;;;;;6.20;3.40;;;-6.20;71.80;;;;;;5035080;28;46292;-79
2021/12/10 07:11:30;;;;;;;9.50;3.55;;;-6.30;71.90;;;;;;5052601;28;48129;-79
2021/12/10 07:13:58;;;;;;;10.13;4.10;;;-6.20;71.80;;;;;;5050795;28;46086;-81
2021/12/10 07:16:26;;;;;;;11.15;3.42;;;-6.10;71.60;;;;;;5036701;28;49431;-81
2021/12/10 07:18:53;;;;;;;10.38;4.35;;;-6.00;71.40;;;;;;5035684;28;46102;-81
2021/12/10 07:21:19;;;;;;;9.30;3.55;;;-5.90;71.20;;;;;;5053494;28;45829;-80
2021/12/10 07:23:44;;;;;;;8.80;4.38;;;-5.90;71.00;;;;;;5055228;28;46002;-80
2021/12/10 07:26:11;;;;;;;7.10;3.40;;;-5.80;70.60;;;;;;5056456;28;46414;-81
2021/12/10 07:28:37;;;;;;;8.07;4.25;;;-5.70;70.50;;;;;;5058205;28;46443;-80
2021/12/10 07:31:05;;;;;;;8.15;4.38;;;-5.60;70.30;;;;;;5046480;28;45837;-82
2021/12/10 07:33:31;;;;;;;9.20;4.60;;;-5.50;69.90;;;;;;5048198;28;46501;-82
2021/12/10 07:35:57;;;;;;;8.60;3.50;;;-5.40;69.50;;;;;;5047981;28;48208;-84
2021/12/10 07:38:22;;;;;;;6.97;3.63;;;-5.30;69.70;;;;;;5056408;28;45845;-83
2021/12/10 07:40:49;;;;;;;7.43;3.43;;;-5.20;69.50;;;;;;5061779;28;45977;-84
2021/12/10 07:43:15;;;;;;;5.22;2.90;;;-4.90;69.20;;;;;;5057828;28;46381;-84
2021/12/10 07:45:43;;;;;;;5.00;3.47;;;-4.60;68.50;;;;;;5062113;28;46653;-82
2021/12/10 07:48:11;;;;;;;6.13;3.75;;;-4.20;68.10;;;;;;5062543;28;46591;-84
2021/12/10 07:50:44;;;;;;;4.82;3.20;;;-3.90;67.60;;;;;;5059047;28;46516;-82
2021/12/10 07:53:10;;;;;;;7.10;3.83;;;-3.80;67.40;;;;;;5038037;28;46248;-82
2021/12/10 07:55:38;;;;;;;5.33;2.93;;;-3.90;67.60;;;;;;5054330;28;46392;-80
2021/12/10 07:58:06;;;;;;;3.60;2.50;;;-4.00;68.20;;;;;;5054485;28;46026;-83
2021/12/10 08:00:34;;;;;;;3.47;2.38;;;-4.20;68.40;;;;;;5032786;28;46713;-82
2021/12/10 08:03:01;;;;;;;2.70;1.77;;;-4.30;68.90;;;;;;5050575;28;46421;-80
2021/12/10 08:05:26;;;;;;;3.75;2.55;;;-4.40;69.10;;;;;;5042477;28;49813;-82
2021/12/10 08:07:54;;;;;;;4.10;2.40;;;-4.30;68.80;;;;;;5054352;28;46729;-79
2021/12/10 08:10:20;;;;;;;7.32;2.20;;;-4.20;68.50;;;;;;5053736;28;46365;-81
2021/12/10 08:12:46;;;;;;;6.60;3.47;;;-4.30;68.40;;;;;;5055049;28;47049;-81
2021/12/10 08:15:13;;;;;;;5.10;3.00;;;-4.20;68.30;;;;;;5051819;28;47062;-81
2021/12/10 08:17:39;;;;;;;7.57;3.90;;;-3.90;68.40;;;;;;5054312;28;46426;-82
2021/12/10 08:20:07;;;;;;;4.28;2.78;;;-4.10;68.20;;;;;;5054908;28;46590;-81
2021/12/10 08:22:33;;;;;;;7.10;3.33;;;-4.00;68.40;;;;;;5052260;28;46582;-82
2021/12/10 08:24:59;;;;;;;4.10;2.90;;;-3.90;68.50;;;;;;5049068;28;46540;-82
2021/12/10 08:27:24;;;;;;;5.63;3.50;;;-3.80;68.40;;;;;;5046394;28;46439;-83
2021/12/10 08:29:50;;;;;;;5.43;3.20;;;-3.90;68.50;;;;;;5053698;28;46501;-79
2021/12/10 08:32:20;;;;;;;8.80;3.60;;;-3.70;68.60;;;;;;5053593;28;46487;-83
2021/12/10 08:34:49;;;;;;;6.55;4.13;;;-3.80;68.60;;;;;;5053263;28;46561;-83
2021/12/10 08:37:16;;;;;;;11.88;5.22;;;-3.80;68.70;;;;;;5053577;28;46382;-84
2021/12/10 08:39:42;;;;;;;11.73;6.45;;;-3.50;69.00;;;;;;5052460;28;46444;-80
2021/12/10 08:42:08;;;;;;;7.45;4.70;;;-3.60;68.70;;;;;;5052964;28;46254;-81
2021/12/10 08:44:35;;;;;;;12.10;5.88;;;-3.50;68.40;;;;;;5055221;28;47507;-80
2021/12/10 08:47:01;;;;;;;8.38;6.03;;;-3.30;68.30;;;;;;5038144;28;46591;-82
2021/12/10 08:49:27;;;;;;;9.87;5.77;;;-3.10;68.20;;;;;;5055904;28;46485;-82
2021/12/10 08:51:56;;;;;;;10.10;6.00;;;-2.90;67.90;;;;;;5054917;28;46333;-81
2021/12/10 08:54:27;;;;;;;9.93;5.13;;;-2.70;67.40;;;;;;5051348;28;46277;-83
2021/12/10 08:56:53;;;;;;;6.35;4.32;;;-2.50;67.20;;;;;;5054631;28;46672;-80
2021/12/10 08:59:22;;;;;;;10.55;5.55;;;-2.50;67.20;;;;;;5055380;28;46511;-81
2021/12/10 09:01:52;;;;;;;12.57;5.55;;;-2.40;67.30;;;;;;5053288;28;46207;-82
2021/12/10 09:04:18;;;;;;;11.70;5.82;;;-2.40;67.40;;;;;;5049422;28;47318;-81
2021/12/10 09:06:48;;;;;;;9.37;5.50;;;-2.40;67.30;;;;;;5052040;28;46571;-81
2021/12/10 09:09:15;;;;;;;13.95;5.85;;;-2.40;67.40;;;;;;5057024;28;46600;-81
2021/12/10 09:11:45;;;;;;;10.27;5.55;;;-2.50;67.20;;;;;;5052883;28;46710;-81
2021/12/10 09:14:12;;;;;;;10.95;6.00;;;-2.40;67.30;;;;;;5042268;28;48476;-81
2021/12/10 09:16:38;;;;;;;12.13;6.15;;;-2.50;67.20;;;;;;5056834;28;46337;-82
2021/12/10 09:19:07;;;;;;;15.73;7.78;;;-2.50;67.30;;;;;;5056040;28;46442;-81
2021/12/10 09:21:34;;;;;;;11.73;5.90;;;-2.40;67.30;;;;;;5046170;28;46573;-85
2021/12/10 09:24:04;;;;;;;12.38;5.15;;;-2.30;67.30;;;;;;5055699;28;47063;-82
2021/12/10 09:26:36;;;;;;;28.13;11.15;;;-2.20;67.40;;;;;;5047885;28;46706;-80
2021/12/10 09:29:06;;;;;;;14.82;7.00;;;-1.90;67.70;;;;;;5035812;28;46573;-81
2021/12/10 09:31:33;;;;;;;31.70;13.98;;;-1.60;66.40;;;;;;5042358;28;46464;-82
2021/12/10 09:33:59;;;;;;;35.15;13.68;;;-1.50;65.40;;;;;;5040167;28;46788;-82
2021/12/10 09:36:25;;;;;;;18.33;9.30;;;-1.40;64.90;;;;;;5048736;28;45764;-80
2021/12/10 09:38:51;;;;;;;10.40;6.85;;;-1.30;64.80;;;;;;5050725;28;46342;-81
2021/12/10 09:41:18;;;;;;;13.68;5.07;;;-1.00;64.80;;;;;;5051524;28;46788;-82
2021/12/10 09:43:44;;;;;;;11.30;4.45;;;-0.70;64.70;;;;;;5056766;28;47210;-83
2021/12/10 09:46:11;;;;;;;8.88;4.15;;;-0.50;64.30;;;;;;5056798;28;46350;-81
2021/12/10 09:48:38;;;;;;;9.23;4.15;;;-0.20;64.30;;;;;;5053799;28;46404;-83
2021/12/10 09:51:10;;;;;;;9.30;3.42;;;-0.20;64.20;;;;;;5053985;28;46476;-83
2021/12/10 09:53:38;;;;;;;6.43;3.85;;;0.10;64.10;;;;;;5051718;28;46417;-84
2021/12/10 09:56:04;;;;;;;5.88;3.72;;;0.20;64.10;;;;;;5056845;28;46031;-79
2021/12/10 09:58:30;;;;;;;10.52;5.30;;;0.30;64.20;;;;;;5052411;28;46521;-82
2021/12/10 10:01:01;;;;;;;7.50;3.50;;;0.50;64.50;;;;;;5055140;28;48167;-81
2021/12/10 10:03:31;;;;;;;17.40;10.25;;;0.30;64.50;;;;;;5028082;28;48483;-84
2021/12/10 10:05:58;;;;;;;9.85;5.90;;;0.40;64.60;;;;;;5032305;28;46620;-82
2021/12/10 10:08:26;;;;;;;9.05;5.40;;;0.50;64.60;;;;;;5059816;28;46128;-81
2021/12/10 10:10:57;;;;;;;7.82;3.38;;;0.60;64.60;;;;;;5030872;28;46551;-82
2021/12/10 10:13:28;;;;;;;6.97;4.45;;;0.80;64.60;;;;;;5052358;28;46406;-80
2021/12/10 10:15:57;;;;;;;5.78;3.65;;;0.90;64.30;;;;;;5051676;28;46726;-82
2021/12/10 10:18:24;;;;;;;8.18;4.72;;;1.00;64.30;;;;;;5054894;28;46310;-82
2021/12/10 10:20:54;;;;;;;9.52;5.85;;;1.00;64.20;;;;;;5039388;28;46527;-80
2021/12/10 10:23:21;;;;;;;7.50;4.45;;;1.10;64.30;;;;;;5059507;28;47287;-81
2021/12/10 10:25:50;;;;;;;5.15;2.95;;;1.20;64.10;;;;;;5053628;28;46372;-82
2021/12/10 10:28:16;;;;;;;7.10;5.32;;;1.40;63.90;;;;;;5052896;28;46335;-85
2021/12/10 10:30:52;;;;;;;10.63;7.00;;;1.50;63.90;;;;;;5054969;28;46456;-81
2021/12/10 10:33:18;;;;;;;3.33;2.60;;;1.60;63.70;;;;;;5039176;28;48373;-80
2021/12/10 10:35:50;;;;;;;4.45;3.28;;;1.80;63.80;;;;;;5055509;28;46573;-82
2021/12/10 10:38:16;;;;;;;4.70;2.75;;;1.90;63.70;;;;;;5056586;28;46797;-77
2021/12/10 10:40:47;;;;;;;5.18;2.88;;;2.00;63.70;;;;;;5038831;28;46585;-79
2021/12/10 10:43:14;;;;;;;4.35;3.00;;;2.20;63.60;;;;;;5050316;28;46340;-81
2021/12/10 10:45:42;;;;;;;8.00;3.60;;;2.30;63.40;;;;;;5030198;28;46408;-81
2021/12/10 10:48:11;;;;;;;6.78;3.05;;;2.40;63.20;;;;;;5055906;28;46539;-80
2021/12/10 10:50:45;;;;;;;4.80;2.80;;;2.40;63.20;;;;;;5053617;28;46415;-80
2021/12/10 10:58:46;;;;;;;4.53;3.05;;;2.10;62.10;;;;;;5124537;27;45768;-69
2021/12/10 11:01:24;;;;;;;6.10;3.40;;;1.90;65.10;;;;;;5108426;27;46326;-71
2021/12/10 11:03:58;;;;;;;4.55;3.20;;;2.00;66.10;;;;;;5108860;27;46528;-72
2021/12/10 11:06:36;;;;;;;4.93;3.80;;;2.10;65.90;;;;;;5096848;27;46365;-70
2021/12/10 11:09:16;;;;;;;7.75;5.00;;;2.30;65.50;;;;;;5085459;27;46540;-70
2021/12/10 11:11:49;;;;;;;5.40;4.15;;;2.40;65.10;;;;;;5088209;27;46681;-69
2021/12/10 11:14:37;;;;;;;8.38;4.95;;;2.50;64.90;;;;;;5075130;27;46333;-69
2021/12/10 11:17:27;;;;;;;10.60;5.05;;;2.60;64.60;;;;;;5090427;27;46597;-69
2021/12/10 11:20:10;;;;;;;9.23;5.28;;;2.50;64.60;;;;;;5080156;27;46460;-69
2021/12/10 11:22:46;;;;;;;6.70;4.78;;;2.50;64.40;;;;;;5085012;27;46274;-69
2021/12/10 11:25:20;;;;;;;17.52;4.82;;;2.50;64.50;;;;;;5106769;27;46337;-69
2021/12/10 11:27:47;;;;;;;11.10;5.28;;;2.40;64.30;;;;;;5104920;27;46516;-69
2021/12/10 11:30:25;;;;;;;8.48;5.80;;;2.40;64.40;;;;;;5105419;27;48769;-69
2021/12/10 11:33:03;;;;;;;8.40;5.40;;;2.50;64.30;;;;;;5110164;27;45814;-71
2021/12/10 11:35:36;;;;;;;9.07;5.65;;;2.50;64.40;;;;;;5096469;27;46416;-69
2021/12/10 11:38:14;;;;;;;7.75;5.18;;;2.60;64.10;;;;;;5095209;27;45851;-68
2021/12/10 11:40:48;;;;;;;10.60;5.53;;;2.60;63.70;;;;;;5098966;27;46325;-70
2021/12/10 11:44:07;;;;;;;8.60;4.55;;;2.60;63.60;;;;;;5086706;27;46393;-69
2021/12/10 11:49:12;;;;;;;8.82;6.00;;;2.30;63.80;;;;;;5102540;27;46556;-70
2021/12/10 11:51:55;;;;;;;8.98;5.88;;;2.40;63.70;;;;;;5088128;27;47788;-70
2021/12/10 11:54:44;;;;;;;9.95;5.72;;;2.60;63.60;;;;;;5068905;27;46467;-71
2021/12/10 11:57:18;;;;;;;7.20;4.70;;;2.70;63.30;;;;;;5111405;27;46361;-69
2021/12/10 11:59:58;;;;;;;8.90;4.70;;;2.90;63.20;;;;;;5073500;27;46614;-70
2021/12/10 12:02:30;;;;;;;7.95;5.03;;;3.00;62.80;;;;;;5069782;27;46351;-70
2021/12/10 12:05:09;;;;;;;10.55;4.60;;;3.10;62.70;;;;;;5089663;27;46452;-70
2021/12/10 12:07:49;;;;;;;7.07;4.30;;;3.20;62.50;;;;;;5082367;27;46453;-70
2021/12/10 12:10:23;;;;;;;8.63;5.10;;;3.20;62.00;;;;;;5089244;27;46558;-70
2021/12/10 12:12:58;;;;;;;9.23;5.43;;;3.30;61.70;;;;;;5075972;27;46380;-68
2021/12/10 12:15:28;;;;;;;11.10;5.43;;;3.30;62.30;;;;;;5069065;27;46093;-70
2021/12/10 12:18:08;;;;;;;14.60;6.00;;;3.30;61.10;;;;;;5081686;27;46243;-70
2021/12/10 12:20:34;;;;;;;9.02;5.40;;;3.30;60.90;;;;;;5072806;27;46416;-71
2021/12/10 12:26:06;;;;;;;14.45;6.70;;;3.10;60.80;;;;;;5098158;27;46370;-70
2021/12/10 12:28:36;;;;;;;11.82;5.13;;;3.20;61.10;;;;;;5074586;27;46363;-71
2021/12/10 12:31:05;;;;;;;9.30;4.60;;;3.20;60.90;;;;;;5088170;27;46338;-69
2021/12/10 12:33:49;;;;;;;8.82;5.25;;;3.10;60.40;;;;;;5086428;27;46540;-70
2021/12/10 12:36:15;;;;;;;12.30;5.30;;;3.20;60.40;;;;;;5061025;27;46532;-71
2021/12/10 12:38:45;;;;;;;11.30;4.95;;;3.10;60.60;;;;;;5086154;27;46346;-72
2021/12/10 12:41:17;;;;;;;8.82;5.88;;;3.10;60.80;;;;;;5092932;27;46634;-71
2021/12/10 12:43:46;;;;;;;10.73;5.93;;;3.20;60.70;;;;;;5077721;27;46423;-71
2021/12/10 12:46:13;;;;;;;9.70;6.03;;;3.20;60.50;;;;;;5088541;27;46372;-71
2021/12/10 12:48:58;;;;;;;12.57;7.25;;;3.20;60.00;;;;;;5082120;27;46338;-70
2021/12/10 12:51:25;;;;;;;11.15;5.90;;;3.10;59.90;;;;;;5078466;27;46472;-70
2021/12/10 12:53:53;;;;;;;10.40;5.38;;;3.10;60.00;;;;;;5073765;27;47865;-70
2021/12/10 12:56:24;;;;;;;7.53;4.55;;;3.10;60.00;;;;;;5068517;27;46392;-71
2021/12/10 12:58:54;;;;;;;7.78;4.47;;;3.00;60.10;;;;;;5074030;27;46398;-71
2021/12/10 13:01:35;;;;;;;13.57;6.18;;;3.10;61.30;;;;;;5077803;27;46424;-71
2021/12/10 13:04:12;;;;;;;11.13;5.85;;;3.10;59.90;;;;;;5073678;27;46513;-70
2021/12/10 13:06:55;;;;;;;11.00;7.05;;;3.10;59.50;;;;;;5090620;27;46318;-72
2021/12/10 13:09:26;;;;;;;9.95;6.32;;;3.20;59.60;;;;;;5074743;27;46474;-71
2021/12/10 13:14:35;;;;;;;10.40;5.50;;;3.10;59.70;;;;;;5082160;27;46383;-70
2021/12/10 13:17:23;;;;;;;9.02;5.18;;;3.20;59.90;;;;;;5076414;27;46314;-69
2021/12/10 13:19:52;;;;;;;10.95;5.47;;;3.20;60.00;;;;;;5054468;27;46369;-70
2021/12/10 13:22:21;;;;;;;15.45;7.55;;;3.30;60.00;;;;;;5072217;27;46544;-71